Time;durP1;ratioP1;P1;durP2;ratioP2;P2;SDS_P1;SDS_P2;PMS_P1;PMS_P2;Temp;Humidity;BMP_temperature;BMP_pressure;BME280_temperature;BME280_humidity;BME280_pressure;Samples;Min_cycle;Max_cycle;Signal;HPM_P1;HPM_P2
2021/06/18 00:00:32;;;;;;;6.97;5.95;;;19.70;99.90;;;;;;6046355;23;20119;-90
2021/06/18 00:03:01;;;;;;;10.25;6.60;;;19.70;99.90;;;;;;6069301;23;20429;-90
2021/06/18 00:05:29;;;;;;;9.82;6.18;;;19.70;99.90;;;;;;6069482;23;20045;-90
2021/06/18 00:07:58;;;;;;;11.75;6.32;;;19.70;99.90;;;;;;6093924;23;20023;-89
2021/06/18 00:10:32;;;;;;;7.88;5.65;;;19.70;99.90;;;;;;6046032;23;20079;-90
2021/06/18 00:12:59;;;;;;;9.15;6.25;;;19.60;99.90;;;;;;6069446;23;20029;-91
2021/06/18 00:15:27;;;;;;;11.27;6.75;;;19.60;99.90;;;;;;6044913;23;20022;-90
2021/06/18 00:17:54;;;;;;;9.88;6.50;;;19.70;99.90;;;;;;6094450;23;20081;-90
2021/06/18 00:20:22;;;;;;;11.93;6.85;;;19.70;99.90;;;;;;6069732;23;20022;-90
2021/06/18 00:22:49;;;;;;;12.38;7.70;;;19.70;99.90;;;;;;6094631;23;20442;-90
2021/06/18 00:25:16;;;;;;;8.80;5.97;;;19.70;99.90;;;;;;6093728;23;20057;-90
2021/06/18 00:27:43;;;;;;;6.80;5.40;;;19.70;99.90;;;;;;6093677;23;20022;-91
2021/06/18 00:30:11;;;;;;;9.35;5.97;;;19.70;99.90;;;;;;6094523;23;20105;-92
2021/06/18 00:32:39;;;;;;;11.10;6.10;;;19.70;99.90;;;;;;6069342;23;20062;-90
2021/06/18 00:35:07;;;;;;;13.95;7.35;;;19.70;99.90;;;;;;6069278;23;20409;-91
2021/06/18 00:37:34;;;;;;;10.25;6.47;;;19.70;99.90;;;;;;6069322;23;20109;-90
2021/06/18 00:40:06;;;;;;;7.47;6.13;;;19.70;99.90;;;;;;6068811;23;20125;-90
2021/06/18 00:42:33;;;;;;;8.48;6.28;;;19.70;99.90;;;;;;6094588;23;20030;-89
2021/06/18 00:45:00;;;;;;;13.32;6.70;;;19.70;99.90;;;;;;6095906;23;20054;-90
2021/06/18 00:47:28;;;;;;;7.88;6.05;;;19.70;99.90;;;;;;6071818;23;20022;-90
2021/06/18 00:49:55;;;;;;;9.80;6.35;;;19.60;99.90;;;;;;6071072;23;20022;-90
2021/06/18 00:52:23;;;;;;;10.85;6.10;;;19.70;99.90;;;;;;6071517;23;20081;-90
2021/06/18 00:54:51;;;;;;;10.55;6.40;;;19.60;99.90;;;;;;6096677;23;20105;-87
2021/06/18 00:57:19;;;;;;;9.77;6.18;;;19.60;99.90;;;;;;6096251;23;20089;-89
2021/06/18 00:59:46;;;;;;;8.50;6.13;;;19.60;99.90;;;;;;6095615;23;20367;-89
2021/06/18 01:02:15;;;;;;;11.95;7.18;;;19.60;99.90;;;;;;6097327;23;20022;-90
2021/06/18 01:04:42;;;;;;;13.00;6.22;;;19.60;99.90;;;;;;6077196;23;20022;-90
2021/06/18 01:07:21;;;;;;;10.00;6.63;;;19.50;99.90;;;;;;6099235;23;20066;-90
2021/06/18 01:10:18;;;;;;;6.85;5.78;;;19.40;99.90;;;;;;6097078;23;20054;-89
2021/06/18 01:12:58;;;;;;;11.50;6.80;;;19.30;99.90;;;;;;6070992;23;20045;-89
2021/06/18 01:16:09;;;;;;;12.95;5.93;;;19.30;99.90;;;;;;6096032;23;20097;-90
2021/06/18 01:18:48;;;;;;;9.90;5.50;;;19.30;99.90;;;;;;6032193;23;20018;-91
2021/06/18 01:21:20;;;;;;;7.03;5.22;;;19.30;99.90;;;;;;6071118;23;20050;-90
2021/06/18 01:24:22;;;;;;;13.77;5.10;;;19.30;99.90;;;;;;6095394;23;20352;-90
2021/06/18 01:27:26;;;;;;;8.93;4.93;;;19.50;99.90;;;;;;6070612;23;20042;-90
2021/06/18 01:30:09;;;;;;;10.20;4.68;;;19.70;99.90;;;;;;6096528;23;20030;-89
2021/06/18 01:33:08;;;;;;;9.50;4.93;;;19.80;99.90;;;;;;6095616;23;20069;-89
2021/06/18 01:35:48;;;;;;;9.70;5.05;;;19.80;99.90;;;;;;6095432;23;20495;-90
2021/06/18 01:38:18;;;;;;;7.57;4.88;;;19.80;99.90;;;;;;6070026;23;20572;-90
2021/06/18 01:40:49;;;;;;;7.68;5.65;;;19.90;99.90;;;;;;6071782;23;20078;-90
2021/06/18 01:43:20;;;;;;;10.95;5.78;;;19.80;99.90;;;;;;6070898;23;20101;-89
2021/06/18 01:45:50;;;;;;;7.77;5.03;;;19.80;99.90;;;;;;6096156;23;20113;-90
2021/06/18 01:48:21;;;;;;;6.00;5.20;;;19.60;99.90;;;;;;6095649;23;20250;-90
2021/06/18 01:50:52;;;;;;;9.18;5.55;;;19.60;99.90;;;;;;6096248;23;20058;-90
2021/06/18 01:53:21;;;;;;;6.70;5.13;;;19.50;99.90;;;;;;6095569;23;20026;-89
2021/06/18 01:55:49;;;;;;;10.77;5.93;;;19.30;99.90;;;;;;6095450;23;20098;-90
2021/06/18 01:58:21;;;;;;;10.50;5.63;;;19.20;99.90;;;;;;6070687;23;20062;-88
2021/06/18 02:00:53;;;;;;;8.85;5.88;;;19.00;99.90;;;;;;6096346;23;20089;-90
2021/06/18 02:03:26;;;;;;;7.50;5.35;;;18.90;99.90;;;;;;6096039;23;20128;-89
2021/06/18 02:05:57;;;;;;;14.57;5.85;;;18.70;99.90;;;;;;6095650;23;20584;-89
2021/06/18 02:08:26;;;;;;;6.85;5.38;;;18.60;99.90;;;;;;6095200;23;20370;-90
2021/06/18 02:10:55;;;;;;;7.43;5.53;;;18.50;99.90;;;;;;6095703;23;20094;-90
2021/06/18 02:13:28;;;;;;;11.93;6.05;;;18.40;99.90;;;;;;6070146;23;20305;-90
2021/06/18 02:15:57;;;;;;;10.18;5.97;;;18.40;99.90;;;;;;6095087;23;20169;-89
2021/06/18 02:18:26;;;;;;;12.38;5.88;;;18.30;99.90;;;;;;6070576;23;20042;-89
2021/06/18 02:20:57;;;;;;;7.20;6.13;;;18.20;99.90;;;;;;6070087;23;20117;-89
2021/06/18 02:23:27;;;;;;;9.38;5.85;;;18.20;99.90;;;;;;6095035;23;20397;-90
2021/06/18 02:26:01;;;;;;;13.75;6.80;;;18.10;99.90;;;;;;6095953;23;20023;-90
2021/06/18 02:28:28;;;;;;;16.70;7.57;;;18.10;99.90;;;;;;6095440;23;20112;-89
2021/06/18 02:30:55;;;;;;;13.77;7.38;;;18.20;99.90;;;;;;6094933;23;20386;-90
2021/06/18 02:33:22;;;;;;;9.23;6.28;;;18.20;99.90;;;;;;6094726;23;20102;-90
2021/06/18 02:35:50;;;;;;;7.95;6.38;;;18.10;99.90;;;;;;6070202;23;20522;-90
2021/06/18 02:38:17;;;;;;;9.32;6.25;;;18.10;99.90;;;;;;6095094;23;20125;-89
2021/06/18 02:40:47;;;;;;;10.27;6.35;;;18.00;99.90;;;;;;6070141;23;20097;-91
2021/06/18 02:43:17;;;;;;;11.23;7.20;;;17.90;99.90;;;;;;6095355;23;20086;-90
2021/06/18 02:45:44;;;;;;;7.22;6.25;;;17.80;99.90;;;;;;6096066;23;20057;-89
2021/06/18 02:48:24;;;;;;;8.05;6.35;;;17.70;99.90;;;;;;6094858;23;20037;-89
2021/06/18 02:51:07;;;;;;;10.90;6.63;;;17.60;99.90;;;;;;6095038;23;20027;-91
2021/06/18 02:53:46;;;;;;;8.88;6.90;;;17.50;99.90;;;;;;6094846;23;20056;-90
2021/06/18 02:56:46;;;;;;;9.98;6.68;;;17.50;99.90;;;;;;6094583;23;20087;-89
2021/06/18 02:59:15;;;;;;;7.88;6.60;;;17.60;99.90;;;;;;6095608;23;20085;-88
2021/06/18 03:01:43;;;;;;;11.27;7.10;;;17.70;99.90;;;;;;6069911;23;20481;-91
2021/06/18 03:04:18;;;;;;;9.70;6.75;;;17.60;99.90;;;;;;6070065;23;20026;-89
2021/06/18 03:06:47;;;;;;;9.25;7.28;;;17.60;99.90;;;;;;6095675;23;20079;-90
2021/06/18 03:09:21;;;;;;;12.90;6.47;;;17.60;99.90;;;;;;6094421;23;20049;-90
2021/06/18 03:11:49;;;;;;;12.10;6.53;;;17.50;99.90;;;;;;6069299;23;20019;-89
2021/06/18 03:14:18;;;;;;;7.63;6.32;;;17.60;99.90;;;;;;6069828;23;20033;-90
2021/06/18 03:16:49;;;;;;;12.48;6.90;;;17.60;99.90;;;;;;6094719;23;20029;-91
2021/06/18 03:19:19;;;;;;;7.43;6.40;;;17.60;99.90;;;;;;6094805;23;20114;-89
2021/06/18 03:21:48;;;;;;;9.52;6.43;;;17.60;99.90;;;;;;6094664;23;20106;-89
2021/06/18 03:24:17;;;;;;;9.68;5.85;;;17.60;99.90;;;;;;6068666;23;20203;-89
2021/06/18 03:26:49;;;;;;;9.45;6.25;;;17.60;99.90;;;;;;6093756;23;20121;-89
2021/06/18 03:29:21;;;;;;;10.40;6.05;;;17.60;99.90;;;;;;6092042;23;20447;-88
2021/06/18 03:31:49;;;;;;;11.05;6.93;;;17.60;99.90;;;;;;6093175;23;20359;-90
2021/06/18 03:34:19;;;;;;;11.55;6.68;;;17.70;99.90;;;;;;6093188;23;20026;-89
2021/06/18 03:36:46;;;;;;;9.10;6.68;;;17.80;99.90;;;;;;6093836;23;20061;-89
2021/06/18 03:39:13;;;;;;;9.50;7.07;;;17.90;99.90;;;;;;6093357;23;20541;-89
2021/06/18 03:41:43;;;;;;;9.88;6.40;;;18.00;99.90;;;;;;6093976;23;20032;-89
2021/06/18 03:44:10;;;;;;;14.13;8.02;;;17.90;99.90;;;;;;6093606;23;20267;-89
2021/06/18 03:46:39;;;;;;;10.60;7.95;;;17.80;99.90;;;;;;6068982;23;20015;-89
2021/06/18 03:49:07;;;;;;;9.38;6.57;;;17.90;99.90;;;;;;6094002;23;20382;-90
2021/06/18 03:51:37;;;;;;;7.90;6.40;;;17.90;99.90;;;;;;6094150;23;20025;-88
2021/06/18 03:54:08;;;;;;;12.05;7.05;;;18.00;99.90;;;;;;6094344;23;20050;-90
2021/06/18 03:56:37;;;;;;;10.63;7.07;;;18.00;99.90;;;;;;6094608;23;20097;-89
2021/06/18 03:59:08;;;;;;;8.93;7.78;;;18.10;99.90;;;;;;6095193;23;20109;-90
2021/06/18 04:01:42;;;;;;;8.05;7.25;;;18.10;99.90;;;;;;6067924;23;20113;-90
2021/06/18 04:04:11;;;;;;;10.40;8.05;;;18.00;99.90;;;;;;6068312;23;20042;-89
2021/06/18 04:06:39;;;;;;;14.52;8.98;;;18.00;99.90;;;;;;6069039;23;20382;-89
2021/06/18 04:09:06;;;;;;;24.02;17.45;;;17.90;99.90;;;;;;6067834;23;20377;-88
2021/06/18 04:11:36;;;;;;;11.40;8.82;;;17.90;99.90;;;;;;6068989;23;20109;-90
2021/06/18 04:14:07;;;;;;;12.10;8.48;;;17.90;99.90;;;;;;6093794;23;20088;-90
2021/06/18 04:16:36;;;;;;;12.52;7.85;;;18.00;99.90;;;;;;6093837;23;20129;-90
2021/06/18 04:19:07;;;;;;;14.02;7.55;;;18.00;99.90;;;;;;6068420;23;20101;-89
2021/06/18 04:21:37;;;;;;;10.02;7.28;;;18.10;99.90;;;;;;6068829;23;20026;-89
2021/06/18 04:24:05;;;;;;;11.35;7.10;;;18.20;99.90;;;;;;6093489;23;20509;-90
2021/06/18 04:26:35;;;;;;;11.77;7.28;;;18.30;99.90;;;;;;6068052;23;20026;-89
2021/06/18 04:29:03;;;;;;;13.18;7.60;;;18.40;99.90;;;;;;6094811;23;20057;-90
2021/06/18 04:31:32;;;;;;;10.90;7.15;;;18.50;99.90;;;;;;6067915;23;20030;-89
2021/06/18 04:34:03;;;;;;;15.27;6.50;;;18.60;99.90;;;;;;6045348;23;20026;-90
2021/06/18 04:36:38;;;;;;;9.05;6.60;;;18.60;99.90;;;;;;6047469;23;20026;-89
2021/06/18 04:39:06;;;;;;;10.57;6.53;;;18.80;99.90;;;;;;6093497;23;20038;-87
2021/06/18 04:41:34;;;;;;;10.07;6.10;;;19.00;99.90;;;;;;6069286;23;20664;-89
2021/06/18 04:44:01;;;;;;;8.15;6.28;;;19.20;99.90;;;;;;6073206;23;20054;-89
2021/06/18 04:46:31;;;;;;;8.52;6.05;;;19.30;99.90;;;;;;6098476;23;20298;-90
2021/06/18 04:48:58;;;;;;;12.93;6.28;;;19.40;99.90;;;;;;6104238;23;20065;-88
2021/06/18 04:51:25;;;;;;;7.70;5.90;;;19.60;99.90;;;;;;6076045;23;20065;-89
2021/06/18 04:53:55;;;;;;;8.15;6.15;;;19.70;99.90;;;;;;6100863;23;20078;-90
2021/06/18 04:56:25;;;;;;;6.68;5.80;;;19.80;99.90;;;;;;6096318;23;20410;-89
2021/06/18 04:58:52;;;;;;;10.23;6.07;;;20.00;99.90;;;;;;6069598;23;20093;-91
2021/06/18 05:01:19;;;;;;;7.95;5.30;;;20.10;99.90;;;;;;6094202;23;20284;-89
2021/06/18 05:03:47;;;;;;;9.98;6.43;;;20.30;99.90;;;;;;6070648;23;20121;-89
2021/06/18 05:06:19;;;;;;;9.70;5.97;;;20.30;99.90;;;;;;6067584;23;20064;-88
2021/06/18 05:08:46;;;;;;;9.25;6.28;;;20.40;99.90;;;;;;6068695;23;20027;-90
2021/06/18 05:11:15;;;;;;;11.02;6.03;;;20.50;99.90;;;;;;6093570;23;20101;-89
2021/06/18 05:13:42;;;;;;;7.78;6.03;;;20.60;99.90;;;;;;6068887;23;20050;-89
2021/06/18 05:16:24;;;;;;;7.80;6.20;;;20.60;99.90;;;;;;6094026;23;20049;-88
2021/06/18 05:18:52;;;;;;;7.60;5.78;;;20.70;99.90;;;;;;6093014;23;20030;-89
2021/06/18 05:21:19;;;;;;;11.50;6.13;;;20.80;99.90;;;;;;6097252;23;20337;-92
2021/06/18 05:23:46;;;;;;;11.15;6.15;;;20.90;99.90;;;;;;6068407;23;20106;-89
2021/06/18 05:26:13;;;;;;;8.15;5.93;;;21.00;99.90;;;;;;6094969;23;20057;-86
2021/06/18 05:28:40;;;;;;;8.48;6.18;;;21.00;99.90;;;;;;6095032;23;20101;-87
2021/06/18 05:31:07;;;;;;;6.95;5.38;;;21.10;99.90;;;;;;6069499;23;20026;-88
2021/06/18 05:33:34;;;;;;;10.85;5.53;;;21.10;99.90;;;;;;6095681;23;20469;-89
2021/06/18 05:36:01;;;;;;;9.07;6.20;;;21.20;99.90;;;;;;6096794;23;20101;-87
2021/06/18 05:38:28;;;;;;;8.43;6.25;;;21.30;99.90;;;;;;6097573;23;20026;-89
2021/06/18 05:40:55;;;;;;;8.13;5.93;;;21.40;99.90;;;;;;6095895;23;20042;-89
2021/06/18 05:43:22;;;;;;;9.02;5.90;;;21.60;99.90;;;;;;6070623;23;20031;-91
2021/06/18 05:45:52;;;;;;;7.65;5.93;;;21.80;99.90;;;;;;6096131;23;20026;-92
2021/06/18 05:48:21;;;;;;;12.38;6.05;;;21.90;99.90;;;;;;6096998;23;20026;-93
2021/06/18 05:50:51;;;;;;;11.73;5.97;;;22.10;99.90;;;;;;6072689;23;20501;-89
2021/06/18 05:53:21;;;;;;;9.93;5.25;;;22.20;99.90;;;;;;6095463;23;20023;-91
2021/06/18 05:55:52;;;;;;;8.30;5.55;;;22.40;99.90;;;;;;6096901;23;20093;-90
2021/06/18 05:58:22;;;;;;;8.05;5.40;;;22.60;99.90;;;;;;6096012;23;20045;-91
2021/06/18 06:00:49;;;;;;;8.48;5.68;;;22.70;99.90;;;;;;6073021;23;20022;-92
2021/06/18 06:03:16;;;;;;;11.07;5.88;;;23.00;99.90;;;;;;6100444;23;20050;-86
2021/06/18 06:05:43;;;;;;;8.93;5.47;;;23.10;99.90;;;;;;6101744;23;20030;-92
2021/06/18 06:08:12;;;;;;;8.90;5.35;;;23.30;99.90;;;;;;6102329;23;20152;-91
2021/06/18 06:10:45;;;;;;;7.65;5.05;;;23.40;99.90;;;;;;6105764;23;20042;-91
2021/06/18 06:13:12;;;;;;;7.43;4.70;;;23.80;99.90;;;;;;6099771;23;20034;-90
2021/06/18 06:15:38;;;;;;;6.93;4.57;;;24.00;97.80;;;;;;6096357;23;20089;-92
2021/06/18 06:18:08;;;;;;;9.27;4.38;;;24.20;97.40;;;;;;6095428;23;20022;-93
2021/06/18 06:20:42;;;;;;;6.30;4.13;;;24.50;96.30;;;;;;6070417;23;20027;-93
2021/06/18 06:23:10;;;;;;;12.52;5.38;;;24.80;94.60;;;;;;6095416;23;20462;-92
2021/06/18 06:25:38;;;;;;;7.75;4.93;;;25.00;92.80;;;;;;6095357;23;20351;-91
2021/06/18 06:28:14;;;;;;;8.77;4.30;;;25.00;92.90;;;;;;6096761;23;20090;-93
2021/06/18 06:30:44;;;;;;;10.68;4.50;;;25.30;91.90;;;;;;6071473;23;20022;-91
2021/06/18 06:33:11;;;;;;;9.32;4.50;;;25.50;91.60;;;;;;6094388;23;20022;-90
2021/06/18 06:35:38;;;;;;;5.97;3.92;;;25.70;90.20;;;;;;6069561;23;20041;-92
2021/06/18 06:38:05;;;;;;;5.68;4.03;;;25.80;87.50;;;;;;6070481;23;20392;-93
2021/06/18 06:40:32;;;;;;;6.28;3.90;;;26.10;90.50;;;;;;6096248;23;20434;-90
2021/06/18 06:42:59;;;;;;;5.57;3.80;;;26.50;90.70;;;;;;6096671;23;20018;-93
2021/06/18 06:45:28;;;;;;;4.82;3.60;;;26.90;82.80;;;;;;6070894;23;20081;-93
2021/06/18 06:47:58;;;;;;;4.97;3.90;;;27.30;80.20;;;;;;6096694;23;20113;-91
2021/06/18 06:50:26;;;;;;;7.67;3.83;;;27.50;80.80;;;;;;6071486;23;20399;-91
2021/06/18 06:52:54;;;;;;;4.80;3.33;;;27.80;82.10;;;;;;6095634;23;20077;-93
2021/06/18 06:55:22;;;;;;;5.85;3.75;;;28.00;80.20;;;;;;6094961;23;20022;-93
2021/06/18 06:58:05;;;;;;;9.03;3.30;;;28.40;78.00;;;;;;6096011;23;20026;-91
2021/06/18 07:00:32;;;;;;;4.93;3.20;;;28.40;77.30;;;;;;6094474;23;20258;-91
2021/06/18 07:03:00;;;;;;;3.60;3.03;;;28.60;77.10;;;;;;6097480;23;20022;-93
2021/06/18 07:05:27;;;;;;;6.38;2.95;;;28.60;73.90;;;;;;6102351;23;20045;-93
2021/06/18 07:07:59;;;;;;;;;;;28.90;70.20;;;;;;6101519;23;20026;-93
2021/06/18 07:14:02;;;;;;;5.95;3.20;;;29.40;67.30;;;;;;5915042;24;20022;-94
2021/06/18 07:16:30;;;;;;;4.75;2.92;;;29.80;64.90;;;;;;6087626;23;20026;-93
2021/06/18 07:18:59;;;;;;;7.93;3.00;;;29.90;67.20;;;;;;6069504;23;20057;-91
2021/06/18 07:21:32;;;;;;;4.45;2.65;;;29.90;65.30;;;;;;6095570;23;20034;-93
2021/06/18 07:23:59;;;;;;;4.90;3.10;;;29.80;66.50;;;;;;6093969;23;20315;-93
2021/06/18 07:26:27;;;;;;;5.50;3.17;;;30.20;63.70;;;;;;6053366;23;20493;-93
2021/06/18 07:28:55;;;;;;;7.50;3.63;;;30.50;63.60;;;;;;6098757;23;20366;-93
2021/06/18 07:31:22;;;;;;;5.70;3.30;;;30.40;62.70;;;;;;6097481;23;20086;-91
2021/06/18 07:33:49;;;;;;;9.13;3.55;;;30.30;64.60;;;;;;6093876;23;20022;-88
2021/06/18 07:36:16;;;;;;;6.13;3.17;;;29.80;63.90;;;;;;6068940;23;20015;-90
2021/06/18 07:38:44;;;;;;;7.28;3.60;;;29.90;67.40;;;;;;6071008;23;20022;-92
2021/06/18 07:41:22;;;;;;;6.53;3.42;;;30.40;67.90;;;;;;6075204;23;20018;-93
2021/06/18 07:44:18;;;;;;;4.53;3.40;;;30.60;66.00;;;;;;6075561;23;20018;-92
2021/06/18 07:46:45;;;;;;;5.18;3.35;;;31.00;61.70;;;;;;6072107;23;20022;-91
2021/06/18 07:49:17;;;;;;;8.10;3.67;;;30.80;59.90;;;;;;6096773;23;20046;-90
2021/06/18 07:52:20;;;;;;;5.90;3.42;;;30.80;60.20;;;;;;6075265;23;20101;-94
2021/06/18 07:54:58;;;;;;;7.05;3.90;;;30.80;59.60;;;;;;6102110;23;20023;-91
2021/06/18 07:57:32;;;;;;;8.23;3.60;;;30.70;60.50;;;;;;6078546;23;20101;-92
2021/06/18 08:00:17;;;;;;;6.93;3.70;;;31.10;61.00;;;;;;6070208;23;20014;-93
2021/06/18 08:03:06;;;;;;;8.70;3.70;;;31.50;59.90;;;;;;6094336;23;20018;-94
2021/06/18 08:05:33;;;;;;;4.88;3.42;;;31.80;58.80;;;;;;6097649;23;20093;-90
2021/06/18 08:08:00;;;;;;;11.75;3.95;;;31.90;59.00;;;;;;6071068;23;20026;-90
2021/06/18 08:10:42;;;;;;;;;;;31.90;58.40;;;;;;6094609;23;20030;-90
2021/06/18 08:13:09;;;;;;;8.40;4.15;;;31.90;58.80;;;;;;6072037;23;19917;-89
2021/06/18 08:15:36;;;;;;;8.13;4.05;;;31.90;57.30;;;;;;6094621;23;20318;-93
2021/06/18 08:18:46;;;;;;;5.55;3.22;;;32.00;61.50;;;;;;6005133;23;20030;-90
2021/06/18 08:21:36;;;;;;;8.15;4.00;;;32.30;57.10;;;;;;5894570;24;20025;-90
2021/06/18 08:24:05;;;;;;;4.63;3.67;;;32.60;58.70;;;;;;5894702;24;20021;-92
2021/06/18 08:27:01;;;;;;;4.88;3.83;;;32.70;56.30;;;;;;5872569;24;20026;-91
2021/06/18 08:29:35;;;;;;;10.43;4.07;;;33.00;54.50;;;;;;5898341;24;20549;-92
2021/06/18 08:32:52;;;;;;;8.25;4.05;;;33.20;54.70;;;;;;5916052;24;20084;-94
2021/06/18 08:35:31;;;;;;;5.40;3.50;;;33.00;54.50;;;;;;5925393;24;20319;-91
2021/06/18 08:38:02;;;;;;;8.18;4.00;;;33.30;57.10;;;;;;5900271;24;20025;-88
2021/06/18 08:40:31;;;;;;;6.00;3.65;;;33.70;54.30;;;;;;6006192;23;20095;-88
2021/06/18 08:43:02;;;;;;;11.93;3.75;;;33.90;54.80;;;;;;6010139;23;20087;-89
2021/06/18 08:45:36;;;;;;;7.22;3.88;;;34.00;56.50;;;;;;6010461;23;20276;-90
2021/06/18 08:48:03;;;;;;;6.55;3.33;;;34.30;54.30;;;;;;6033845;23;20028;-90
2021/06/18 08:50:43;;;;;;;;;;;;;;;;;;;;;
2021/06/18 08:53:18;;;;;;;7.63;3.53;;;34.60;51.00;;;;;;6093441;23;20026;-91
2021/06/18 08:55:45;;;;;;;9.60;4.00;;;34.60;51.70;;;;;;6069643;23;20085;-92
2021/06/18 08:58:27;;;;;;;;;;;;;;;;;;;;;
2021/06/18 09:01:23;;;;;;;6.10;3.88;;;34.40;51.30;;;;;;6055809;23;20023;-89
2021/06/18 09:04:13;;;;;;;7.40;3.88;;;34.60;51.40;;;;;;6103169;23;20066;-92
2021/06/18 09:07:24;;;;;;;5.47;3.60;;;34.70;50.30;;;;;;6102724;23;20140;-91
2021/06/18 09:10:27;;;;;;;5.53;3.78;;;34.50;49.70;;;;;;6071115;23;20019;-88
2021/06/18 09:17:08;;;;;;;6.70;3.80;;;34.60;50.00;;;;;;6100165;23;20294;-92
2021/06/18 09:20:04;;;;;;;7.15;3.53;;;34.90;51.90;;;;;;6074208;23;20083;-90
2021/06/18 09:22:45;;;;;;;7.13;3.95;;;35.10;48.90;;;;;;6068520;23;20333;-90
2021/06/18 09:58:40;;;;;;;9.35;4.05;;;35.20;48.70;;;;;;5100766;27;20628;-92
2021/06/18 10:01:34;;;;;;;6.13;3.70;;;36.70;44.10;;;;;;5063411;28;20087;-92
2021/06/18 10:04:15;;;;;;;5.82;3.55;;;36.20;44.10;;;;;;5046677;28;20124;-89
2021/06/18 10:06:49;;;;;;;4.30;3.20;;;36.30;43.80;;;;;;5076996;28;20046;-92
2021/06/18 10:09:18;;;;;;;5.82;3.80;;;36.40;42.30;;;;;;5051752;28;20701;-93
2021/06/18 10:11:49;;;;;;;5.63;3.60;;;36.30;42.80;;;;;;5040870;28;20052;-90
2021/06/18 10:14:18;;;;;;;6.07;3.72;;;35.90;43.70;;;;;;5042841;28;20049;-92
2021/06/18 10:16:51;;;;;;;4.20;3.42;;;35.80;43.50;;;;;;5046839;28;20065;-90
2021/06/18 10:19:30;;;;;;;8.45;3.88;;;35.90;42.80;;;;;;5047279;28;20560;-90
2021/06/18 10:22:19;;;;;;;5.85;4.30;;;36.10;43.90;;;;;;5053486;28;20056;-92
2021/06/18 10:24:54;;;;;;;10.38;3.58;;;36.70;45.40;;;;;;5044090;28;20144;-92
2021/06/18 10:27:44;;;;;;;4.57;2.97;;;37.60;40.70;;;;;;5076598;28;20053;-90
2021/06/18 10:30:46;;;;;;;3.97;3.03;;;38.10;36.50;;;;;;5037250;28;20053;-93
2021/06/18 10:33:26;;;;;;;5.80;3.50;;;38.30;38.80;;;;;;5049435;28;20037;-89
2021/06/18 10:36:11;;;;;;;4.53;3.38;;;38.40;40.60;;;;;;5039084;28;20108;-92
2021/06/18 10:39:38;;;;;;;4.53;3.33;;;38.90;37.80;;;;;;5073649;28;20119;-91
2021/06/18 10:42:17;;;;;;;7.85;3.13;;;39.00;37.60;;;;;;4978867;28;20251;-92
2021/06/18 10:44:49;;;;;;;6.53;3.40;;;39.30;37.30;;;;;;4998473;28;20449;-90
2021/06/18 10:50:49;;;;;;;6.32;2.72;;;39.00;36.90;;;;;;4956098;28;20050;-91
2021/06/18 10:53:27;;;;;;;2.83;2.63;;;39.10;36.20;;;;;;4989751;28;20073;-92
2021/06/18 10:56:25;;;;;;;8.38;3.10;;;39.40;34.70;;;;;;5001789;28;20078;-92
2021/06/18 10:59:06;;;;;;;6.68;2.50;;;38.80;34.50;;;;;;4993641;28;20102;-91
2021/06/18 11:01:36;;;;;;;6.68;2.80;;;38.70;33.50;;;;;;5032642;28;20051;-90
2021/06/18 11:04:07;;;;;;;5.95;2.90;;;38.90;34.60;;;;;;5066689;28;20087;-92
2021/06/18 11:06:50;;;;;;;3.30;2.45;;;39.20;36.40;;;;;;5068012;28;20049;-91
2021/06/18 11:10:21;;;;;;;4.07;2.23;;;39.20;31.10;;;;;;5032323;28;20045;-93
2021/06/18 11:13:20;;;;;;;5.07;2.47;;;38.30;31.50;;;;;;5001690;28;20050;-93
2021/06/18 11:15:47;;;;;;;4.72;2.35;;;37.90;32.80;;;;;;5039743;28;20420;-93
2021/06/18 11:18:28;;;;;;;4.43;2.17;;;38.30;32.20;;;;;;5033243;28;20482;-92
2021/06/18 11:21:09;;;;;;;5.97;2.17;;;38.60;29.40;;;;;;5042880;28;20052;-89
2021/06/18 11:23:59;;;;;;;6.53;2.60;;;38.60;31.90;;;;;;5029257;28;20460;-92
2021/06/18 11:26:26;;;;;;;4.25;2.72;;;38.40;33.00;;;;;;5029748;28;20069;-90
2021/06/18 11:28:56;;;;;;;5.50;2.38;;;38.70;32.10;;;;;;5034656;28;20084;-91
2021/06/18 11:31:38;;;;;;;4.90;2.95;;;38.90;32.90;;;;;;5032846;28;20340;-89
2021/06/18 11:34:06;;;;;;;10.73;2.92;;;39.20;32.20;;;;;;5033802;28;20452;-95
2021/06/18 11:36:56;;;;;;;8.05;2.80;;;39.60;34.10;;;;;;5036113;28;20046;-92
2021/06/18 11:39:30;;;;;;;4.43;3.13;;;40.00;30.30;;;;;;5035851;28;20057;-92
2021/06/18 11:41:59;;;;;;;4.05;2.45;;;39.40;30.30;;;;;;5032515;28;20066;-91
2021/06/18 11:44:32;;;;;;;3.20;2.53;;;39.10;29.60;;;;;;5027605;28;20053;-90
2021/06/18 11:47:00;;;;;;;6.43;2.65;;;39.40;35.40;;;;;;5033009;28;20092;-93
2021/06/18 11:49:29;;;;;;;4.18;2.83;;;39.60;32.40;;;;;;5032034;28;20107;-91
2021/06/18 11:52:02;;;;;;;4.90;2.63;;;39.70;30.10;;;;;;5033049;28;20128;-91
2021/06/18 11:54:35;;;;;;;4.63;2.20;;;39.40;31.70;;;;;;5065431;28;20223;-88
2021/06/18 11:57:33;;;;;;;4.45;2.60;;;39.80;29.30;;;;;;5032996;28;20088;-90
2021/06/18 12:00:01;;;;;;;4.38;2.50;;;40.30;29.00;;;;;;5024781;28;20485;-91
2021/06/18 12:02:34;;;;;;;3.70;2.30;;;40.70;29.90;;;;;;5031195;28;20522;-91
2021/06/18 12:05:26;;;;;;;5.97;2.58;;;41.30;30.00;;;;;;5030978;28;20111;-91
2021/06/18 12:07:53;;;;;;;5.45;2.60;;;41.00;28.90;;;;;;5033336;28;20098;-93
2021/06/18 12:11:20;;;;;;;;;;;;;;;;;;;;;
2021/06/18 12:14:33;;;;;;;;;;;;;;;;;;;;;
2021/06/18 12:17:26;;;;;;;3.30;2.58;;;39.70;32.10;;;;;;4992940;28;20050;-89
2021/06/18 12:19:53;;;;;;;4.15;2.60;;;40.40;29.80;;;;;;5031459;28;20099;-90
2021/06/18 12:22:30;;;;;;;11.80;2.75;;;39.80;30.50;;;;;;5030782;28;20100;-93
2021/06/18 12:24:59;;;;;;;3.13;2.70;;;40.10;28.80;;;;;;5031270;28;20057;-95
2021/06/18 12:27:33;;;;;;;4.10;2.53;;;40.80;27.40;;;;;;5063945;28;20057;-92
2021/06/18 12:30:14;;;;;;;4.35;2.10;;;40.60;28.80;;;;;;5033616;28;20118;-94
2021/06/18 12:32:43;;;;;;;6.38;1.92;;;40.90;29.50;;;;;;5032699;28;20098;-91
2021/06/18 12:35:12;;;;;;;5.28;2.63;;;41.10;27.50;;;;;;5032158;28;20427;-89
2021/06/18 12:37:42;;;;;;;4.70;2.10;;;41.10;27.70;;;;;;5033569;28;20111;-93
2021/06/18 12:40:23;;;;;;;7.45;2.60;;;41.20;28.70;;;;;;5031964;28;20095;-94
2021/06/18 12:42:52;;;;;;;3.47;2.25;;;41.00;27.40;;;;;;5031182;28;20049;-94
2021/06/18 12:45:21;;;;;;;6.80;2.22;;;41.60;26.70;;;;;;5032356;28;20037;-94
2021/06/18 12:48:33;;;;;;;4.57;2.50;;;41.60;26.80;;;;;;5022139;28;20144;-93
2021/06/18 12:51:04;;;;;;;6.50;2.15;;;41.10;25.80;;;;;;5041405;28;20456;-95
2021/06/18 12:53:59;;;;;;;4.97;2.17;;;41.10;26.80;;;;;;5038633;28;20450;-92
2021/06/18 12:56:27;;;;;;;3.22;2.17;;;40.80;27.60;;;;;;5031927;28;20111;-94
2021/06/18 12:59:17;;;;;;;4.32;2.22;;;41.10;30.10;;;;;;5029844;28;20117;-92
2021/06/18 13:02:42;;;;;;;4.63;2.25;;;41.70;27.90;;;;;;5031743;28;20156;-95
2021/06/18 13:05:23;;;;;;;3.60;2.22;;;41.70;27.90;;;;;;4970694;28;20065;-92
2021/06/18 13:07:51;;;;;;;6.63;2.38;;;41.60;26.30;;;;;;4971497;28;20576;-92
2021/06/18 13:10:40;;;;;;;5.18;2.05;;;41.30;26.30;;;;;;4974006;28;20283;-94
2021/06/18 13:13:08;;;;;;;11.75;2.40;;;41.40;27.50;;;;;;4960236;28;20043;-93
2021/06/18 13:15:45;;;;;;;5.85;2.20;;;42.10;25.80;;;;;;4971910;28;20050;-94
2021/06/18 13:18:13;;;;;;;3.10;2.08;;;42.10;25.80;;;;;;4970636;28;20064;-93
2021/06/18 13:21:04;;;;;;;9.02;2.40;;;42.20;27.30;;;;;;4968937;28;20065;-93
2021/06/18 13:24:15;;;;;;;10.75;2.50;;;41.50;27.10;;;;;;4905287;29;20070;-93
2021/06/18 13:27:21;;;;;;;5.85;2.45;;;41.60;26.80;;;;;;4883590;29;20048;-93
2021/06/18 13:30:02;;;;;;;10.45;2.45;;;41.50;27.40;;;;;;4902054;29;20060;-93
2021/06/18 13:32:49;;;;;;;4.18;2.78;;;41.10;25.90;;;;;;4899170;29;20080;-90
2021/06/18 13:36:03;;;;;;;6.93;2.58;;;41.40;27.60;;;;;;4924322;28;20050;-93
2021/06/18 13:38:48;;;;;;;;;;;;;;;;;;;;;
2021/06/18 13:41:18;;;;;;;7.07;2.53;;;41.80;26.70;;;;;;4990054;28;20065;-91
2021/06/18 13:43:48;;;;;;;7.85;2.38;;;41.60;27.40;;;;;;4969825;28;20081;-92
2021/06/18 13:46:16;;;;;;;8.90;3.25;;;41.60;27.50;;;;;;4983271;28;20085;-92
2021/06/18 13:48:44;;;;;;;6.75;2.20;;;41.70;26.90;;;;;;5008164;28;20056;-91
2021/06/18 13:51:14;;;;;;;2.78;2.30;;;41.50;27.00;;;;;;5037549;28;20106;-89
2021/06/18 13:53:46;;;;;;;7.85;3.20;;;41.10;27.70;;;;;;5030017;28;20449;-93
2021/06/18 13:56:35;;;;;;;5.30;2.72;;;41.10;28.60;;;;;;5037609;28;20053;-93
2021/06/18 14:00:03;;;;;;;6.55;2.75;;;41.40;28.80;;;;;;5030742;28;21022;-92
2021/06/18 14:02:31;;;;;;;7.00;2.78;;;41.60;27.70;;;;;;5029413;28;20057;-93
2021/06/18 14:05:05;;;;;;;7.47;2.80;;;41.70;27.90;;;;;;5029917;28;20114;-93
2021/06/18 14:07:51;;;;;;;;;;;;;;;;;;;;;
2021/06/18 14:14:26;;;;;;;6.72;2.60;;;42.00;27.60;;;;;;5001714;28;20045;-93
2021/06/18 14:16:54;;;;;;;6.20;2.55;;;41.90;27.00;;;;;;5021948;28;20064;-94
2021/06/18 14:19:21;;;;;;;4.95;2.92;;;41.70;27.80;;;;;;5033755;28;20140;-93